Flight Track Log - Related Links

Times and Time Zones

All times are in EDT time to prevent confusion due to time zone crossing. See the KAP528 flight status page for this flight to view local times or setup timezone preferences in your user account.

Time Position Orientation Groundspeed Altitude Reporting Facility
EDT Latitude Longitude Course Direction KTS MPH feet Rate Location/Type
Tue 10:39:02 AM 42.7006 -73.8103 282° West 129 148 2,500  Level Boston Center
Tue 10:40:03 AM 42.7083 -73.8586 282° West 134 154 3,800 1,101 Climbing Boston Center
Tue 10:40:51 AM 42.7247 -73.8900 305° West 133 153 4,500 771 Climbing Boston Center
Tue 10:41:52 AM 42.7578 -73.9133 333° Northwest 137 158 5,200 703 Climbing Boston Center
Tue 10:42:59 AM 42.7947 -73.9453 328° Northwest 139 160 6,000 709 Climbing Boston Center
Tue 10:43:59 AM 42.8278 -73.9744 327° Northwest 144 166 6,700 678 Climbing Boston Center
Tue 10:44:54 AM 42.8628 -74.0008 331° Northwest 151 174 7,300 724 Climbing Boston Center
Tue 10:45:55 AM 42.8978 -74.0300 329° Northwest 149 171 8,100 724 Climbing Boston Center
Tue 10:46:50 AM 42.9308 -74.0594 327° Northwest 150 173 8,700 645 Climbing Boston Center
Tue 10:47:56 AM 42.9700 -74.0917 329° Northwest 158 182 9,400 661 Climbing Boston Center
Tue 10:48:57 AM 43.0092 -74.1211 331° Northwest 161 185 10,100 725 Climbing Boston Center
Tue 10:49:27 AM 43.0278 -74.1328 335° Northwest 161 185 10,500 337 Climbing Boston Center
Tue 10:50:26 AM 43.0647 -74.1622 330° Northwest 172 198 10,600 50 Climbing Boston Center
Tue 10:51:26 AM 43.1142 -74.2036 329° Northwest 185 213 10,600 -50 Level Boston Center
Tue 10:52:26 AM 43.1553 -74.2361 330° Northwest 185 213 10,500 -50 Descending Boston Center
Tue 10:53:26 AM 43.2028 -74.2717 331° Northwest 180 207 10,500 50 Level Boston Center
Tue 10:54:26 AM 43.2458 -74.3014 333° Northwest 180 207 10,600 50 Climbing Boston Center
Tue 10:55:26 AM 43.2953 -74.3372 332° Northwest 180 207 10,600 -50 Level Boston Center
Tue 10:56:26 AM 43.3344 -74.3669 331° Northwest 180 207 10,500 -50 Descending Boston Center
Tue 10:57:27 AM 43.3797 -74.4083 326° Northwest 180 207 10,500 50 Level Boston Center
Tue 10:58:26 AM 43.4247 -74.4469 328° Northwest 185 213 10,600 50 Climbing Boston Center
Tue 10:59:27 AM 43.4681 -74.4828 329° Northwest 185 213 10,600  Level Boston Center
Tue 11:00:26 AM 43.5111 -74.5186 329° Northwest 185 213 10,600  Level Boston Center
Tue 11:01:26 AM 43.5542 -74.5514 331° Northwest 185 213 10,600 -50 Level Boston Center
Tue 11:02:27 AM 43.5972 -74.5875 329° Northwest 185 213 10,500 -50 Descending Boston Center
Tue 11:03:27 AM 43.6425 -74.6206 332° Northwest 180 207 10,500 50 Level Boston Center
Tue 11:04:27 AM 43.6856 -74.6539 331° Northwest 180 207 10,600 50 Climbing Boston Center
Tue 11:05:26 AM 43.7267 -74.6869 330° Northwest 180 207 10,600  Level Boston Center
Tue 11:06:26 AM 43.7697 -74.7231 329° Northwest 180 207 10,600  Level Boston Center
Tue 11:07:27 AM 43.8131 -74.7533 333° Northwest 175 201 10,600  Level Boston Center
Tue 11:08:26 AM 43.8519 -74.7867 328° Northwest 175 201 10,600 -50 Level Boston Center
Tue 11:09:26 AM 43.8950 -74.8200 331° Northwest 175 201 10,500  Descending Boston Center
Tue 11:10:26 AM 43.9358 -74.8533 330° Northwest 175 201 10,600  Climbing Boston Center
Tue 11:11:26 AM 43.9789 -74.8867 331° Northwest 170 196 10,500 -100 Descending Boston Center
Tue 11:12:26 AM 44.0200 -74.9203 330° Northwest 170 196 10,400 -200 Descending Boston Center
Tue 11:13:26 AM 44.0547 -74.9478 330° Northwest 175 201 10,100 -397 Descending Boston Center
Tue 11:14:27 AM 44.1081 -74.9933 328° Northwest 180 207 9,600 -545 Descending Boston Center
Tue 11:15:27 AM 44.1528 -75.0328 328° Northwest 180 207 9,000 -550 Descending Boston Center
Tue 11:16:27 AM 44.2000 -75.0667 333° Northwest 180 207 8,500 -605 Descending Boston Center
Tue 11:17:26 AM 44.2472 -75.1006 333° Northwest 180 207 7,800 -650 Descending Boston Center
Tue 11:18:27 AM 44.2944 -75.1319 335° Northwest 180 207 7,200 -590 Descending Boston Center

Login

Don't have an account? Register now (free) for customized features, flight alerts, and more!